createdAt,value
2023-02-23T00:02:20.314Z,99510.09
2023-02-23T00:04:48.430Z,99499.16
2023-02-23T00:07:20.015Z,99503.59
2023-02-23T00:09:47.505Z,99502.16
2023-02-23T00:12:17.275Z,99500.81
2023-02-23T00:14:44.991Z,99506.34
2023-02-23T00:17:15.125Z,99501.00
2023-02-23T00:19:46.089Z,99504.13
2023-02-23T00:22:13.601Z,99504.78
2023-02-23T00:24:42.617Z,99505.16
2023-02-23T00:27:20.966Z,99506.88
2023-02-23T00:29:52.904Z,99506.03
2023-02-23T00:32:22.269Z,99512.41
2023-02-23T00:34:51.901Z,99507.97
2023-02-23T00:37:22.414Z,99513.00
2023-02-23T00:39:50.444Z,99506.81
2023-02-23T00:42:17.969Z,99511.66
2023-02-23T00:44:47.590Z,99513.69
2023-02-23T00:47:15.551Z,99514.75
2023-02-23T00:49:45.033Z,99517.13
2023-02-23T00:52:14.759Z,99523.16
2023-02-23T00:54:43.380Z,99520.53
2023-02-23T00:57:10.856Z,99513.28
2023-02-23T00:59:38.406Z,99515.09
2023-02-23T01:02:05.964Z,99515.72
2023-02-23T01:04:33.444Z,99523.84
2023-02-23T01:07:04.193Z,99517.25
2023-02-23T01:09:32.129Z,99518.41
2023-02-23T01:12:07.373Z,99519.75
2023-02-23T01:14:35.695Z,99521.19
2023-02-23T01:17:05.816Z,99528.03
2023-02-23T01:19:34.234Z,99519.88
2023-02-23T01:22:04.200Z,99518.97
2023-02-23T01:24:31.775Z,99522.88
2023-02-23T01:26:59.271Z,99520.78
2023-02-23T01:29:27.857Z,99523.16
2023-02-23T01:31:55.480Z,99526.00
2023-02-23T01:34:25.141Z,99525.53
2023-02-23T01:36:52.618Z,99527.72
2023-02-23T01:39:21.587Z,99529.38
2023-02-23T01:41:51.961Z,99521.72
2023-02-23T01:44:19.415Z,99521.84
2023-02-23T01:46:49.380Z,99534.28
2023-02-23T01:49:25.730Z,99534.97
2023-02-23T01:52:08.125Z,99536.16
2023-02-23T01:54:41.631Z,99532.81
2023-02-23T01:57:14.816Z,99538.28
2023-02-23T01:59:49.208Z,99536.88
2023-02-23T02:02:27.676Z,99533.06
2023-02-23T02:04:59.617Z,99535.81
2023-02-23T02:07:31.244Z,99527.78
2023-02-23T02:10:12.200Z,99533.63
2023-02-23T02:12:40.861Z,99537.25
2023-02-23T02:15:17.141Z,99537.53
2023-02-23T02:17:56.901Z,99536.59
2023-02-23T02:21:05.091Z,99533.44
2023-02-23T02:24:24.092Z,99536.34
2023-02-23T02:27:19.431Z,99531.06
2023-02-23T02:29:52.645Z,99543.72
2023-02-23T02:32:39.567Z,99543.66
2023-02-23T02:35:42.746Z,99534.00
2023-02-23T02:38:24.982Z,99536.97
2023-02-23T02:41:44.594Z,99538.28
2023-02-23T02:44:19.752Z,99539.88
2023-02-23T02:46:55.169Z,99543.13
2023-02-23T02:49:41.209Z,99544.41
2023-02-23T02:52:23.592Z,99543.69
2023-02-23T02:55:04.216Z,99549.44
2023-02-23T02:57:35.196Z,99544.41
2023-02-23T03:00:21.300Z,99546.78
2023-02-23T03:03:10.506Z,99550.03
2023-02-23T03:06:08.437Z,99554.84
2023-02-23T03:09:18.852Z,99550.94
2023-02-23T03:12:26.644Z,99557.22
2023-02-23T03:15:35.467Z,99553.44
2023-02-23T03:19:17.276Z,99560.97
2023-02-23T03:22:11.870Z,99565.69
2023-02-23T03:25:18.285Z,99564.38
2023-02-23T03:28:05.626Z,99570.66
2023-02-23T03:31:22.068Z,99574.91
2023-02-23T03:34:29.634Z,99572.69
2023-02-23T03:37:48.736Z,99574.72
2023-02-23T03:40:54.492Z,99567.22
2023-02-23T03:43:59.777Z,99572.53
2023-02-23T03:46:50.536Z,99579.31
2023-02-23T03:49:39.779Z,99572.56
2023-02-23T03:52:37.665Z,99572.28
2023-02-23T03:55:37.090Z,99572.63
2023-02-23T03:58:32.860Z,99572.97
2023-02-23T04:01:22.301Z,99577.44
2023-02-23T04:04:10.838Z,99576.72
2023-02-23T04:07:04.869Z,99576.44
2023-02-23T04:09:51.905Z,99576.56
2023-02-23T04:13:08.879Z,99571.69
2023-02-23T04:15:54.368Z,99576.50
2023-02-23T04:18:28.937Z,99575.19
2023-02-23T04:20:58.245Z,99573.31
2023-02-23T04:23:27.724Z,99576.19
2023-02-23T04:25:56.435Z,99582.22
2023-02-23T04:28:27.640Z,99573.50
2023-02-23T04:30:55.322Z,99574.88
2023-02-23T04:33:25.023Z,99572.94
2023-02-23T04:35:57.343Z,99591.78
2023-02-23T04:38:25.829Z,99586.94
2023-02-23T04:40:53.527Z,99587.06
2023-02-23T04:43:21.010Z,99591.47
2023-02-23T04:45:48.574Z,99600.28
2023-02-23T04:48:36.064Z,99586.16
2023-02-23T04:51:03.860Z,99593.97
2023-02-23T04:53:31.369Z,99591.53
2023-02-23T04:55:59.155Z,99592.34
2023-02-23T04:58:27.288Z,99593.31
2023-02-23T05:00:56.088Z,99598.59
2023-02-23T05:03:23.650Z,99596.63
2023-02-23T05:05:55.225Z,99594.44
2023-02-23T05:08:22.694Z,99600.19
2023-02-23T05:10:51.581Z,99599.63
2023-02-23T05:13:20.634Z,99601.47
2023-02-23T05:15:49.098Z,99603.50
2023-02-23T05:18:16.649Z,99609.31
2023-02-23T05:20:45.293Z,99617.63
2023-02-23T05:23:13.560Z,99625.34
2023-02-23T05:25:41.336Z,99626.97
2023-02-23T05:28:11.861Z,99629.34
2023-02-23T05:30:39.443Z,99634.59
2023-02-23T05:33:07.429Z,99635.41
2023-02-23T05:35:35.716Z,99635.41
2023-02-23T05:38:03.189Z,99642.91
2023-02-23T05:40:30.624Z,99650.06
2023-02-23T05:43:01.586Z,99654.78
2023-02-23T05:45:29.154Z,99650.03
2023-02-23T05:47:58.317Z,99658.13
2023-02-23T05:50:26.786Z,99657.53
2023-02-23T05:52:54.313Z,99672.09
2023-02-23T05:55:22.613Z,99675.03
2023-02-23T05:57:50.825Z,99676.50
2023-02-23T06:00:18.736Z,99677.13
2023-02-23T06:02:46.323Z,99685.59
2023-02-23T06:05:15.246Z,99686.41
2023-02-23T06:07:42.669Z,99685.31
2023-02-23T06:10:11.298Z,99695.25
2023-02-23T06:12:38.708Z,99692.41
2023-02-23T06:15:08.399Z,99694.69
2023-02-23T06:17:36.648Z,99699.88
2023-02-23T06:20:07.176Z,99699.25
2023-02-23T06:22:34.878Z,99701.44
2023-02-23T06:25:05.021Z,99705.13
2023-02-23T06:27:32.649Z,99704.59
2023-02-23T06:30:00.362Z,99711.66
2023-02-23T06:32:27.932Z,99713.44
2023-02-23T06:34:56.217Z,99708.75
2023-02-23T06:37:25.113Z,99715.97
2023-02-23T06:39:53.087Z,99710.31
2023-02-23T06:42:20.926Z,99717.25
2023-02-23T06:44:48.435Z,99706.78
2023-02-23T06:47:15.926Z,99713.25
2023-02-23T06:49:44.810Z,99721.94
2023-02-23T06:52:14.357Z,99719.03
2023-02-23T06:54:43.943Z,99715.13
2023-02-23T06:57:15.107Z,99715.53
2023-02-23T06:59:43.018Z,99718.69
2023-02-23T07:02:15.906Z,99723.63
2023-02-23T07:04:45.383Z,99723.94
2023-02-23T07:07:17.120Z,99725.59
2023-02-23T07:09:44.976Z,99726.59
2023-02-23T07:12:13.998Z,99723.53
2023-02-23T07:14:41.723Z,99729.53
2023-02-23T07:17:11.579Z,99725.41
2023-02-23T07:19:40.133Z,99728.31
2023-02-23T07:22:07.611Z,99727.81
2023-02-23T07:24:35.022Z,99731.75
2023-02-23T07:27:03.028Z,99733.53
2023-02-23T07:29:30.658Z,99733.59
2023-02-23T07:31:58.496Z,99730.03
2023-02-23T07:34:26.790Z,99722.72
2023-02-23T07:36:54.310Z,99729.19
2023-02-23T07:39:21.812Z,99733.78
2023-02-23T07:41:49.317Z,99737.31
2023-02-23T07:44:21.540Z,99739.88
2023-02-23T07:46:50.366Z,99740.19
2023-02-23T07:49:17.799Z,99736.38
2023-02-23T07:51:45.563Z,99731.16
2023-02-23T07:54:13.780Z,99734.78
2023-02-23T07:56:42.459Z,99734.13
2023-02-23T07:59:10.176Z,99736.44
2023-02-23T08:01:37.625Z,99738.28
2023-02-23T08:04:05.629Z,99736.66
2023-02-23T08:06:33.231Z,99732.22
2023-02-23T08:09:04.182Z,99732.88
2023-02-23T08:11:32.038Z,99733.38
2023-02-23T08:14:19.648Z,99730.19
2023-02-23T08:16:47.205Z,99738.03
2023-02-23T08:19:15.253Z,99740.69
2023-02-23T08:21:43.780Z,99729.41
2023-02-23T08:24:11.211Z,99730.59
2023-02-23T08:26:38.788Z,99731.13
2023-02-23T08:29:06.834Z,99738.03
2023-02-23T08:31:35.202Z,99737.50
2023-02-23T08:34:03.280Z,99744.13
2023-02-23T08:36:30.786Z,99745.78
2023-02-23T08:38:58.212Z,99736.69
2023-02-23T08:41:26.269Z,99740.31
2023-02-23T08:43:54.399Z,99740.25
2023-02-23T08:46:22.274Z,99744.47
2023-02-23T08:48:49.887Z,99746.59
2023-02-23T08:51:17.736Z,99753.09
2023-02-23T08:53:45.505Z,99743.13
2023-02-23T08:56:13.377Z,99747.16
2023-02-23T08:58:41.185Z,99746.66
2023-02-23T09:01:18.606Z,99752.16
2023-02-23T09:03:46.496Z,99747.25
2023-02-23T09:06:19.050Z,99747.25
2023-02-23T09:08:47.078Z,99747.56
2023-02-23T09:11:14.485Z,99741.44
2023-02-23T09:13:41.926Z,99747.44
2023-02-23T09:16:10.873Z,99737.84
2023-02-23T09:18:39.514Z,99740.19
2023-02-23T09:21:18.778Z,99735.41
2023-02-23T09:23:48.322Z,99729.75
2023-02-23T09:26:18.065Z,99731.00
2023-02-23T09:28:46.688Z,99732.66
2023-02-23T09:31:19.012Z,99725.75
2023-02-23T09:33:47.151Z,99730.91
2023-02-23T09:36:24.925Z,99729.91
2023-02-23T09:38:57.325Z,99733.53
2023-02-23T09:41:53.258Z,99726.47
2023-02-23T09:44:46.681Z,99733.41
2023-02-23T09:47:55.060Z,99728.47
2023-02-23T09:50:27.489Z,99724.38
2023-02-23T09:53:24.241Z,99723.25
2023-02-23T09:55:57.449Z,99731.59
2023-02-23T09:58:34.040Z,99719.78
2023-02-23T10:01:22.425Z,99722.56
2023-02-23T10:04:08.198Z,99724.88
2023-02-23T10:06:35.935Z,99726.72
2023-02-23T10:09:41.749Z,99715.03
2023-02-23T10:12:37.524Z,99721.59
2023-02-23T10:15:29.623Z,99710.81
2023-02-23T10:18:46.591Z,99710.56
2023-02-23T10:21:38.816Z,99702.53
2023-02-23T10:24:11.979Z,99694.75
2023-02-23T10:26:47.919Z,99694.34
2023-02-23T10:29:53.361Z,99695.34
2023-02-23T10:32:39.196Z,99694.06
2023-02-23T10:35:13.945Z,99691.94
2023-02-23T10:37:41.506Z,99686.38
2023-02-23T10:40:18.064Z,99684.13
2023-02-23T10:42:45.647Z,99683.50
2023-02-23T10:45:23.311Z,99681.94
2023-02-23T10:48:07.947Z,99679.00
2023-02-23T10:50:39.701Z,99672.38
2023-02-23T10:53:37.721Z,99679.75
2023-02-23T10:56:17.959Z,99677.81
2023-02-23T10:58:57.841Z,99661.25
2023-02-23T11:02:00.952Z,99670.31
2023-02-23T11:04:35.421Z,99650.69
2023-02-23T11:07:25.634Z,99661.06
2023-02-23T11:09:53.292Z,99656.69
2023-02-23T11:12:42.025Z,99663.75
2023-02-23T11:15:49.132Z,99666.69
2023-02-23T11:18:26.235Z,99659.97
2023-02-23T11:20:54.773Z,99662.00
2023-02-23T11:23:31.504Z,99661.13
2023-02-23T11:26:23.055Z,99654.94
2023-02-23T11:28:58.869Z,99659.47
2023-02-23T11:31:35.164Z,99651.63
2023-02-23T11:34:06.833Z,99656.53
2023-02-23T11:36:37.276Z,99649.84
2023-02-23T11:39:23.517Z,99655.94
2023-02-23T11:42:17.488Z,99653.03
2023-02-23T11:45:07.904Z,99656.22
2023-02-23T11:47:41.645Z,99653.59
2023-02-23T11:50:27.717Z,99648.81
2023-02-23T11:53:21.620Z,99649.56
2023-02-23T11:55:54.706Z,99652.44
2023-02-23T11:58:49.770Z,99645.44
2023-02-23T12:01:41.807Z,99643.03
2023-02-23T12:04:10.268Z,99653.59
2023-02-23T12:06:41.886Z,99643.19
2023-02-23T12:09:28.369Z,99649.63
2023-02-23T12:12:18.346Z,99648.19
2023-02-23T12:15:00.244Z,99647.41
2023-02-23T12:17:35.629Z,99645.66
2023-02-23T12:20:24.354Z,99643.84
2023-02-23T12:23:08.834Z,99646.28
2023-02-23T12:25:59.850Z,99648.50
2023-02-23T12:28:38.872Z,99647.63
2023-02-23T12:31:42.426Z,99645.97
2023-02-23T12:34:38.682Z,99651.59
2023-02-23T12:37:28.186Z,99649.34
2023-02-23T12:40:16.202Z,99659.66
2023-02-23T12:43:13.319Z,99658.19
2023-02-23T12:46:12.145Z,99656.84
2023-02-23T12:49:39.591Z,99658.97
2023-02-23T12:52:32.591Z,99660.41
2023-02-23T12:55:00.911Z,99652.63
2023-02-23T12:57:44.911Z,99662.72
2023-02-23T13:00:50.616Z,99664.78
2023-02-23T13:03:39.307Z,99669.03
2023-02-23T13:06:30.531Z,99655.50
2023-02-23T13:09:16.419Z,99661.63
2023-02-23T13:12:07.350Z,99660.47
2023-02-23T13:14:51.127Z,99659.69
2023-02-23T13:17:55.915Z,99657.63
2023-02-23T13:20:51.387Z,99661.38
2023-02-23T13:26:53.288Z,99654.44
2023-02-23T13:29:43.224Z,99658.47
2023-02-23T13:32:19.661Z,99659.47
2023-02-23T13:35:20.874Z,99663.63
2023-02-23T13:37:58.009Z,99665.56
2023-02-23T13:41:06.433Z,99669.72
2023-02-23T13:43:49.747Z,99669.09
2023-02-23T13:46:44.400Z,99665.13
2023-02-23T13:49:40.247Z,99666.25
2023-02-23T13:52:28.787Z,99661.56
2023-02-23T13:55:03.895Z,99677.84
2023-02-23T13:57:33.400Z,99676.03
2023-02-23T14:00:02.249Z,99680.38
2023-02-23T14:02:41.575Z,99681.75
2023-02-23T14:05:44.022Z,99677.50
2023-02-23T14:08:28.291Z,99687.84
2023-02-23T14:10:57.383Z,99684.72
2023-02-23T14:13:33.478Z,99693.81
2023-02-23T14:16:13.672Z,99690.06
2023-02-23T14:19:12.378Z,99699.94
2023-02-23T14:21:56.152Z,99689.38
2023-02-23T14:24:26.442Z,99694.81
2023-02-23T14:27:13.873Z,99688.16
2023-02-23T14:29:44.413Z,99694.66
2023-02-23T14:32:14.828Z,99688.91
2023-02-23T14:35:01.799Z,99688.34
2023-02-23T14:37:40.987Z,99690.25
2023-02-23T14:40:33.647Z,99689.91
2023-02-23T14:43:05.358Z,99692.84
2023-02-23T14:45:39.650Z,99683.28
2023-02-23T14:48:18.443Z,99697.75
2023-02-23T14:50:46.197Z,99692.09
2023-02-23T14:53:23.726Z,99695.34
2023-02-23T14:56:11.783Z,99695.69
2023-02-23T14:58:39.212Z,99689.41
2023-02-23T15:01:06.651Z,99699.69
2023-02-23T15:03:34.897Z,99700.50
2023-02-23T15:06:02.809Z,99704.25
2023-02-23T15:08:32.988Z,99712.81
2023-02-23T15:11:19.841Z,99702.53
2023-02-23T15:13:54.885Z,99707.69
2023-02-23T15:16:29.804Z,99705.56
2023-02-23T15:19:01.610Z,99710.38
2023-02-23T15:21:29.183Z,99711.72
2023-02-23T15:24:11.086Z,99716.72
2023-02-23T15:26:41.508Z,99721.50
2023-02-23T15:29:14.466Z,99723.63
2023-02-23T15:31:52.376Z,99727.09
2023-02-23T15:34:30.497Z,99733.09
2023-02-23T15:37:05.794Z,99729.88
2023-02-23T15:39:48.581Z,99733.03
2023-02-23T15:42:22.741Z,99742.19
2023-02-23T15:45:05.823Z,99740.00
2023-02-23T15:47:37.970Z,99746.19
2023-02-23T15:50:16.452Z,99750.31
2023-02-23T15:52:55.260Z,99755.25
2023-02-23T15:55:35.438Z,99761.56
2023-02-23T15:58:26.860Z,99761.41
2023-02-23T16:01:20.778Z,99769.63
2023-02-23T16:04:18.702Z,99765.63
2023-02-23T16:06:51.080Z,99776.00
2023-02-23T16:09:22.371Z,99767.78
2023-02-23T16:12:04.949Z,99772.59
2023-02-23T16:14:47.203Z,99769.81
2023-02-23T16:17:40.213Z,99775.81
2023-02-23T16:20:59.939Z,99783.22
2023-02-23T16:23:37.035Z,99796.84
2023-02-23T16:26:35.924Z,99794.41
2023-02-23T16:29:05.528Z,99797.03
2023-02-23T16:31:48.774Z,99797.31
2023-02-23T16:34:37.579Z,99792.81
2023-02-23T16:37:18.279Z,99806.00
2023-02-23T16:39:46.136Z,99800.56
2023-02-23T16:42:34.954Z,99798.06
2023-02-23T16:45:02.876Z,99802.00
2023-02-23T16:47:49.980Z,99797.31
2023-02-23T16:50:23.148Z,99806.28
2023-02-23T16:52:53.446Z,99814.81
2023-02-23T16:55:27.222Z,99816.69
2023-02-23T16:58:04.696Z,99823.97
2023-02-23T17:00:36.264Z,99818.69
2023-02-23T17:03:09.059Z,99823.91
2023-02-23T17:05:44.377Z,99828.16
2023-02-23T17:08:21.176Z,99826.53
2023-02-23T17:10:58.390Z,99825.56
2023-02-23T17:13:35.604Z,99826.81
2023-02-23T17:16:12.039Z,99833.94
2023-02-23T17:21:30.899Z,99839.28
2023-02-23T17:24:03.911Z,99845.66
2023-02-23T17:26:36.531Z,99841.94
2023-02-23T17:29:10.074Z,99847.28
2023-02-23T17:31:41.964Z,99843.72
2023-02-23T17:34:13.109Z,99855.06
2023-02-23T17:36:58.160Z,99857.09
2023-02-23T17:39:28.667Z,99848.75
2023-02-23T17:42:00.543Z,99858.28
2023-02-23T17:44:34.085Z,99862.50
2023-02-23T17:47:02.409Z,99856.66
2023-02-23T17:49:34.425Z,99861.31
2023-02-23T17:52:05.698Z,99868.28
2023-02-23T17:54:55.580Z,99870.25
2023-02-23T17:57:30.474Z,99870.19
2023-02-23T18:00:01.329Z,99871.06
2023-02-23T18:02:42.133Z,99874.59
2023-02-23T18:05:22.234Z,99879.16
2023-02-23T18:07:50.565Z,99877.91
2023-02-23T18:10:18.474Z,99885.94
2023-02-23T18:12:46.197Z,99884.41
2023-02-23T18:15:20.926Z,99884.53
2023-02-23T18:17:49.878Z,99889.91
2023-02-23T18:20:18.645Z,99892.38
2023-02-23T18:22:52.546Z,99889.41
2023-02-23T18:25:34.354Z,99900.09
2023-02-23T18:28:03.386Z,99896.56
2023-02-23T18:30:32.822Z,99900.97
2023-02-23T18:33:22.518Z,99902.59
2023-02-23T18:35:50.698Z,99900.25
2023-02-23T18:38:20.286Z,99911.41
2023-02-23T18:40:48.652Z,99915.16
2023-02-23T18:43:18.930Z,99926.16
2023-02-23T18:45:51.989Z,99931.50
2023-02-23T18:48:41.668Z,99924.41
2023-02-23T18:51:19.494Z,99925.19
2023-02-23T18:53:50.438Z,99922.50
2023-02-23T18:56:31.246Z,99932.66
2023-02-23T18:59:04.115Z,99925.78
2023-02-23T19:01:40.275Z,99924.13
2023-02-23T19:04:10.679Z,99932.91
2023-02-23T19:06:47.708Z,99930.88
2023-02-23T19:09:21.463Z,99928.53
2023-02-23T19:11:53.996Z,99930.16
2023-02-23T19:14:32.935Z,99937.28
2023-02-23T19:17:13.304Z,99932.94
2023-02-23T19:19:41.666Z,99938.38
2023-02-23T19:22:12.141Z,99946.22
2023-02-23T19:24:40.901Z,99943.59
2023-02-23T19:27:10.064Z,99943.88
2023-02-23T19:29:40.272Z,99949.13
2023-02-23T19:32:11.129Z,99938.72
2023-02-23T19:34:42.642Z,99946.31
2023-02-23T19:37:12.160Z,99960.50
2023-02-23T19:40:02.564Z,99950.03
2023-02-23T19:42:33.066Z,99953.97
2023-02-23T19:45:00.808Z,99957.44
2023-02-23T19:47:31.959Z,99948.38
2023-02-23T19:50:01.633Z,99953.78
2023-02-23T19:52:30.858Z,99952.34
2023-02-23T19:54:58.490Z,99945.66
2023-02-23T19:57:26.100Z,99954.28
2023-02-23T19:59:57.776Z,99955.44
2023-02-23T20:02:29.751Z,99952.47
2023-02-23T20:05:04.637Z,99952.25
2023-02-23T20:07:33.427Z,99961.81
2023-02-23T20:10:05.566Z,99958.78
2023-02-23T20:12:36.293Z,99960.50
2023-02-23T20:15:07.060Z,99959.84
2023-02-23T20:17:38.817Z,99955.59
2023-02-23T20:20:11.455Z,99959.16
2023-02-23T20:22:45.808Z,99955.78
2023-02-23T20:25:19.863Z,99959.66
2023-02-23T20:27:48.959Z,99960.72
2023-02-23T20:30:37.516Z,99960.72
2023-02-23T20:33:11.837Z,99966.56
2023-02-23T20:35:39.637Z,99969.75
2023-02-23T20:38:07.266Z,99965.56
2023-02-23T20:40:35.781Z,99970.22
2023-02-23T20:43:04.818Z,99968.63
2023-02-23T20:45:32.485Z,99968.28
2023-02-23T20:48:00.327Z,99968.06
2023-02-23T20:50:32.442Z,99968.00
2023-02-23T20:53:02.462Z,99963.91
2023-02-23T20:55:32.346Z,99960.81
2023-02-23T20:58:01.589Z,99960.63
2023-02-23T21:00:32.422Z,99955.09
2023-02-23T21:03:03.521Z,99952.19
2023-02-23T21:05:38.153Z,99952.56
2023-02-23T21:08:07.773Z,99961.78
2023-02-23T21:10:39.020Z,99958.28
2023-02-23T21:13:10.868Z,99952.66
2023-02-23T21:15:40.513Z,99958.28
2023-02-23T21:18:09.817Z,99951.25
2023-02-23T21:20:40.988Z,99958.63
2023-02-23T21:23:08.705Z,99954.69
2023-02-23T21:25:36.348Z,99951.91
2023-02-23T21:28:04.298Z,99947.84
2023-02-23T21:30:31.902Z,99961.88
2023-02-23T21:33:00.236Z,99958.47
2023-02-23T21:35:37.876Z,99966.25
2023-02-23T21:38:06.182Z,99963.25
2023-02-23T21:40:35.782Z,99954.59
2023-02-23T21:43:10.521Z,99951.78
2023-02-23T21:45:41.077Z,99961.41
2023-02-23T21:48:09.107Z,99962.00
2023-02-23T21:50:36.626Z,99965.28
2023-02-23T21:53:04.666Z,99968.41
2023-02-23T21:55:32.461Z,99962.69
2023-02-23T21:57:59.998Z,99956.16
2023-02-23T22:00:28.102Z,99960.63
2023-02-23T22:02:55.773Z,99955.78
2023-02-23T22:05:23.250Z,99959.28
2023-02-23T22:07:54.814Z,99957.03
2023-02-23T22:10:24.678Z,99961.19
2023-02-23T22:12:57.340Z,99960.72
2023-02-23T22:15:27.829Z,99950.91
2023-02-23T22:17:56.793Z,99944.09
2023-02-23T22:20:26.361Z,99947.59
2023-02-23T22:22:53.810Z,99954.44
2023-02-23T22:25:21.574Z,99947.94
2023-02-23T22:27:51.628Z,99950.75
2023-02-23T22:30:22.632Z,99948.28
2023-02-23T22:32:50.419Z,99938.28
2023-02-23T22:35:18.510Z,99953.06
2023-02-23T22:37:46.328Z,99939.56
2023-02-23T22:40:16.596Z,99935.06
2023-02-23T22:42:50.453Z,99940.53
2023-02-23T22:45:18.857Z,99944.97
2023-02-23T22:47:46.606Z,99951.13
2023-02-23T22:50:17.974Z,99944.59
2023-02-23T22:54:26.610Z,99944.63
2023-02-23T22:56:54.895Z,99947.06
2023-02-23T22:59:22.964Z,99942.09
2023-02-23T23:01:50.664Z,99941.59
2023-02-23T23:04:19.577Z,99939.34
2023-02-23T23:06:47.740Z,99938.00
2023-02-23T23:09:18.143Z,99931.44
2023-02-23T23:11:46.693Z,99933.81
2023-02-23T23:14:14.716Z,99943.84
2023-02-23T23:16:52.013Z,99943.09
2023-02-23T23:19:25.003Z,99939.47
2023-02-23T23:21:55.593Z,99934.53
2023-02-23T23:24:25.338Z,99942.31
2023-02-23T23:27:00.243Z,99931.72
2023-02-23T23:29:32.626Z,99930.94
2023-02-23T23:32:02.312Z,99929.09
2023-02-23T23:34:33.541Z,99925.41
2023-02-23T23:37:02.959Z,99925.47
2023-02-23T23:39:30.669Z,99931.44
2023-02-23T23:41:58.077Z,99930.66
2023-02-23T23:44:29.297Z,99928.16
2023-02-23T23:47:05.492Z,99921.88
2023-02-23T23:49:40.132Z,99920.25
2023-02-23T23:52:08.092Z,99926.81
2023-02-23T23:54:39.119Z,99918.97
2023-02-23T23:57:07.267Z,99914.59
2023-02-23T23:59:36.082Z,99918.63
